Jerumenha, Brazil
Current Conditions -  °F | °C
As of 1:00 PM on Saturday 20 Dec 2014 (Local Time) from SBTE Reporting Station
Broken Clouds Broken Clouds  
Wind Chill: 90°   Ceiling: 10000
Heat Index: 93°   Visibility: 6mi
Dew Point: 68°   Wind: 5mph
Humidity: 49%   Direction: 280°W
Pressure: 29.85"   Gusts: NA
Location:  7.09°S, 43.51°W
Report Text: SBTE 201600Z 28004KT 9999 SCT040 BKN100 32/20 Q1011
Loading
Personal Weather Stations






























Interactive Weather Map New forecast layout! Learn more

10-Day Weather Forecast

Advertisements
Track Severe Weather on mobile